sensor_id;sensor_type;location;lat;lon;timestamp;P1;durP1;ratioP1;P2;durP2;ratioP2
33491;SDS011;20010;51.488;7.232;2022-09-28T00:01:09;13.20;;;12.05;;
33491;SDS011;20010;51.488;7.232;2022-09-28T00:03:46;13.48;;;12.27;;
33491;SDS011;20010;51.488;7.232;2022-09-28T00:06:16;12.95;;;11.68;;
33491;SDS011;20010;51.488;7.232;2022-09-28T00:08:48;13.35;;;11.95;;
33491;SDS011;20010;51.488;7.232;2022-09-28T00:11:16;13.77;;;11.73;;
33491;SDS011;20010;51.488;7.232;2022-09-28T00:13:47;12.73;;;11.63;;
33491;SDS011;20010;51.488;7.232;2022-09-28T00:16:21;12.20;;;11.20;;
33491;SDS011;20010;51.488;7.232;2022-09-28T00:21:20;11.43;;;10.50;;
33491;SDS011;20010;51.488;7.232;2022-09-28T00:23:56;12.35;;;11.40;;
33491;SDS011;20010;51.488;7.232;2022-09-28T00:26:43;11.90;;;10.90;;
33491;SDS011;20010;51.488;7.232;2022-09-28T00:29:22;10.82;;;10.02;;
33491;SDS011;20010;51.488;7.232;2022-09-28T00:31:55;10.40;;;9.60;;
33491;SDS011;20010;51.488;7.232;2022-09-28T00:34:29;10.77;;;9.95;;
33491;SDS011;20010;51.488;7.232;2022-09-28T00:37:00;11.10;;;10.30;;
33491;SDS011;20010;51.488;7.232;2022-09-28T00:39:28;11.20;;;10.30;;
33491;SDS011;20010;51.488;7.232;2022-09-28T00:41:57;10.25;;;9.52;;
33491;SDS011;20010;51.488;7.232;2022-09-28T00:46:57;10.68;;;9.77;;
33491;SDS011;20010;51.488;7.232;2022-09-28T00:49:38;10.63;;;9.73;;
33491;SDS011;20010;51.488;7.232;2022-09-28T00:52:13;11.23;;;10.15;;
33491;SDS011;20010;51.488;7.232;2022-09-28T00:54:44;10.40;;;9.60;;
33491;SDS011;20010;51.488;7.232;2022-09-28T00:57:13;10.43;;;9.68;;
33491;SDS011;20010;51.488;7.232;2022-09-28T00:59:40;9.88;;;9.15;;
33491;SDS011;20010;51.488;7.232;2022-09-28T01:02:08;8.45;;;7.80;;
33491;SDS011;20010;51.488;7.232;2022-09-28T01:04:35;9.00;;;8.30;;
33491;SDS011;20010;51.488;7.232;2022-09-28T01:07:03;8.10;;;7.47;;
33491;SDS011;20010;51.488;7.232;2022-09-28T01:09:31;7.63;;;7.13;;
33491;SDS011;20010;51.488;7.232;2022-09-28T01:11:58;8.55;;;8.02;;
33491;SDS011;20010;51.488;7.232;2022-09-28T01:14:24;9.07;;;8.48;;
33491;SDS011;20010;51.488;7.232;2022-09-28T01:22:26;8.85;;;8.25;;
33491;SDS011;20010;51.488;7.232;2022-09-28T01:25:23;9.65;;;8.88;;
33491;SDS011;20010;51.488;7.232;2022-09-28T01:28:11;10.15;;;9.35;;
33491;SDS011;20010;51.488;7.232;2022-09-28T01:30:43;11.38;;;10.50;;
33491;SDS011;20010;51.488;7.232;2022-09-28T01:33:40;11.57;;;10.65;;
33491;SDS011;20010;51.488;7.232;2022-09-28T01:36:24;12.55;;;11.45;;
33491;SDS011;20010;51.488;7.232;2022-09-28T01:38:56;11.50;;;10.60;;
33491;SDS011;20010;51.488;7.232;2022-09-28T01:41:30;12.50;;;11.35;;
33491;SDS011;20010;51.488;7.232;2022-09-28T01:44:02;11.43;;;10.55;;
33491;SDS011;20010;51.488;7.232;2022-09-28T01:46:32;11.98;;;11.02;;
33491;SDS011;20010;51.488;7.232;2022-09-28T01:49:12;12.07;;;11.00;;
33491;SDS011;20010;51.488;7.232;2022-09-28T01:51:58;12.18;;;11.07;;
33491;SDS011;20010;51.488;7.232;2022-09-28T01:54:34;12.82;;;11.68;;
33491;SDS011;20010;51.488;7.232;2022-09-28T02:00:04;12.45;;;11.27;;
33491;SDS011;20010;51.488;7.232;2022-09-28T02:02:35;12.30;;;11.25;;
33491;SDS011;20010;51.488;7.232;2022-09-28T02:05:28;13.93;;;12.68;;
33491;SDS011;20010;51.488;7.232;2022-09-28T02:10:49;13.68;;;12.48;;
33491;SDS011;20010;51.488;7.232;2022-09-28T02:19:09;14.63;;;13.23;;
33491;SDS011;20010;51.488;7.232;2022-09-28T02:24:36;13.95;;;12.73;;
33491;SDS011;20010;51.488;7.232;2022-09-28T02:27:08;14.27;;;13.05;;
33491;SDS011;20010;51.488;7.232;2022-09-28T02:29:42;14.32;;;13.13;;
33491;SDS011;20010;51.488;7.232;2022-09-28T02:32:09;14.98;;;13.57;;
33491;SDS011;20010;51.488;7.232;2022-09-28T02:34:36;15.40;;;13.98;;
33491;SDS011;20010;51.488;7.232;2022-09-28T02:37:03;15.77;;;14.38;;
33491;SDS011;20010;51.488;7.232;2022-09-28T02:39:29;15.88;;;14.27;;
33491;SDS011;20010;51.488;7.232;2022-09-28T02:51:14;18.38;;;16.77;;
33491;SDS011;20010;51.488;7.232;2022-09-28T02:59:05;21.58;;;19.48;;
33491;SDS011;20010;51.488;7.232;2022-09-28T03:01:36;20.95;;;18.52;;
33491;SDS011;20010;51.488;7.232;2022-09-28T03:06:47;24.52;;;21.30;;
33491;SDS011;20010;51.488;7.232;2022-09-28T03:09:35;23.60;;;20.80;;
33491;SDS011;20010;51.488;7.232;2022-09-28T03:12:07;24.15;;;21.73;;
33491;SDS011;20010;51.488;7.232;2022-09-28T03:14:37;23.55;;;21.10;;
33491;SDS011;20010;51.488;7.232;2022-09-28T03:17:04;25.58;;;22.60;;
33491;SDS011;20010;51.488;7.232;2022-09-28T03:19:31;25.92;;;23.23;;
33491;SDS011;20010;51.488;7.232;2022-09-28T03:21:59;26.67;;;23.88;;
33491;SDS011;20010;51.488;7.232;2022-09-28T03:24:26;27.75;;;24.65;;
33491;SDS011;20010;51.488;7.232;2022-09-28T03:26:53;25.17;;;22.58;;
33491;SDS011;20010;51.488;7.232;2022-09-28T03:29:20;27.42;;;23.60;;
33491;SDS011;20010;51.488;7.232;2022-09-28T03:31:47;26.00;;;22.40;;
33491;SDS011;20010;51.488;7.232;2022-09-28T03:34:14;27.10;;;24.35;;
33491;SDS011;20010;51.488;7.232;2022-09-28T03:36:41;26.77;;;23.23;;
33491;SDS011;20010;51.488;7.232;2022-09-28T03:39:08;25.15;;;21.77;;
33491;SDS011;20010;51.488;7.232;2022-09-28T03:41:34;22.40;;;20.13;;
33491;SDS011;20010;51.488;7.232;2022-09-28T03:44:01;22.48;;;20.08;;
33491;SDS011;20010;51.488;7.232;2022-09-28T03:46:28;23.90;;;21.42;;
33491;SDS011;20010;51.488;7.232;2022-09-28T03:48:55;22.98;;;20.73;;
33491;SDS011;20010;51.488;7.232;2022-09-28T03:51:23;22.10;;;20.00;;
33491;SDS011;20010;51.488;7.232;2022-09-28T03:53:51;21.73;;;19.45;;
33491;SDS011;20010;51.488;7.232;2022-09-28T03:56:17;23.25;;;20.83;;
33491;SDS011;20010;51.488;7.232;2022-09-28T03:58:44;21.90;;;19.30;;
33491;SDS011;20010;51.488;7.232;2022-09-28T04:01:12;21.77;;;19.55;;
33491;SDS011;20010;51.488;7.232;2022-09-28T04:03:43;23.63;;;19.77;;
33491;SDS011;20010;51.488;7.232;2022-09-28T04:06:10;22.90;;;20.35;;
33491;SDS011;20010;51.488;7.232;2022-09-28T04:08:38;24.80;;;21.75;;
33491;SDS011;20010;51.488;7.232;2022-09-28T04:11:05;24.60;;;22.20;;
33491;SDS011;20010;51.488;7.232;2022-09-28T04:13:31;22.73;;;20.42;;
33491;SDS011;20010;51.488;7.232;2022-09-28T04:15:59;24.50;;;21.95;;
33491;SDS011;20010;51.488;7.232;2022-09-28T04:18:27;24.92;;;22.35;;
33491;SDS011;20010;51.488;7.232;2022-09-28T04:21:00;28.00;;;25.00;;
33491;SDS011;20010;51.488;7.232;2022-09-28T04:23:29;28.77;;;25.48;;
33491;SDS011;20010;51.488;7.232;2022-09-28T04:25:56;28.20;;;25.20;;
33491;SDS011;20010;51.488;7.232;2022-09-28T04:28:23;27.70;;;24.83;;
33491;SDS011;20010;51.488;7.232;2022-09-28T04:31:09;26.88;;;23.98;;
33491;SDS011;20010;51.488;7.232;2022-09-28T04:33:38;29.67;;;26.40;;
33491;SDS011;20010;51.488;7.232;2022-09-28T04:36:05;30.65;;;26.85;;
33491;SDS011;20010;51.488;7.232;2022-09-28T04:38:32;32.90;;;27.35;;
33491;SDS011;20010;51.488;7.232;2022-09-28T04:41:17;37.15;;;29.73;;
33491;SDS011;20010;51.488;7.232;2022-09-28T04:43:45;35.35;;;29.55;;
33491;SDS011;20010;51.488;7.232;2022-09-28T04:46:13;36.40;;;30.27;;
33491;SDS011;20010;51.488;7.232;2022-09-28T04:48:40;37.75;;;30.05;;
33491;SDS011;20010;51.488;7.232;2022-09-28T04:51:06;35.88;;;30.42;;
33491;SDS011;20010;51.488;7.232;2022-09-28T04:53:33;38.10;;;31.95;;
33491;SDS011;20010;51.488;7.232;2022-09-28T04:56:01;39.55;;;32.03;;
33491;SDS011;20010;51.488;7.232;2022-09-28T04:58:33;35.28;;;30.75;;
33491;SDS011;20010;51.488;7.232;2022-09-28T05:01:02;35.75;;;31.75;;
33491;SDS011;20010;51.488;7.232;2022-09-28T05:03:32;37.53;;;31.02;;
33491;SDS011;20010;51.488;7.232;2022-09-28T05:05:59;35.80;;;31.73;;
33491;SDS011;20010;51.488;7.232;2022-09-28T05:08:26;37.05;;;31.55;;
33491;SDS011;20010;51.488;7.232;2022-09-28T05:11:01;34.08;;;29.30;;
33491;SDS011;20010;51.488;7.232;2022-09-28T05:13:32;37.60;;;30.08;;
33491;SDS011;20010;51.488;7.232;2022-09-28T05:16:07;37.67;;;29.90;;
33491;SDS011;20010;51.488;7.232;2022-09-28T05:18:34;33.67;;;29.45;;
33491;SDS011;20010;51.488;7.232;2022-09-28T05:21:01;31.40;;;27.88;;
33491;SDS011;20010;51.488;7.232;2022-09-28T05:23:28;34.33;;;27.67;;
33491;SDS011;20010;51.488;7.232;2022-09-28T05:25:55;33.75;;;30.15;;
33491;SDS011;20010;51.488;7.232;2022-09-28T05:28:25;33.17;;;29.30;;
33491;SDS011;20010;51.488;7.232;2022-09-28T05:31:00;31.52;;;27.35;;
33491;SDS011;20010;51.488;7.232;2022-09-28T05:33:28;33.08;;;28.73;;
33491;SDS011;20010;51.488;7.232;2022-09-28T05:35:56;31.25;;;27.80;;
33491;SDS011;20010;51.488;7.232;2022-09-28T05:38:26;31.20;;;27.33;;
33491;SDS011;20010;51.488;7.232;2022-09-28T05:40:54;32.55;;;28.15;;
33491;SDS011;20010;51.488;7.232;2022-09-28T05:43:22;30.33;;;27.05;;
33491;SDS011;20010;51.488;7.232;2022-09-28T05:45:49;32.28;;;28.15;;
33491;SDS011;20010;51.488;7.232;2022-09-28T05:48:21;32.08;;;28.67;;
33491;SDS011;20010;51.488;7.232;2022-09-28T05:50:51;31.45;;;28.02;;
33491;SDS011;20010;51.488;7.232;2022-09-28T05:53:18;32.40;;;28.08;;
33491;SDS011;20010;51.488;7.232;2022-09-28T05:55:45;31.75;;;28.25;;
33491;SDS011;20010;51.488;7.232;2022-09-28T05:58:12;30.38;;;27.23;;
33491;SDS011;20010;51.488;7.232;2022-09-28T06:00:39;31.83;;;28.40;;
33491;SDS011;20010;51.488;7.232;2022-09-28T06:03:07;32.72;;;29.08;;
33491;SDS011;20010;51.488;7.232;2022-09-28T06:05:38;30.75;;;27.50;;
33491;SDS011;20010;51.488;7.232;2022-09-28T06:08:06;33.20;;;27.67;;
33491;SDS011;20010;51.488;7.232;2022-09-28T06:10:35;32.55;;;29.10;;
33491;SDS011;20010;51.488;7.232;2022-09-28T06:13:02;32.80;;;28.85;;
33491;SDS011;20010;51.488;7.232;2022-09-28T06:15:30;31.33;;;27.48;;
33491;SDS011;20010;51.488;7.232;2022-09-28T06:17:58;31.85;;;28.52;;
33491;SDS011;20010;51.488;7.232;2022-09-28T06:20:27;32.55;;;29.00;;
33491;SDS011;20010;51.488;7.232;2022-09-28T06:22:56;32.60;;;29.17;;
33491;SDS011;20010;51.488;7.232;2022-09-28T06:25:23;30.92;;;27.73;;
33491;SDS011;20010;51.488;7.232;2022-09-28T06:27:53;33.58;;;29.75;;
33491;SDS011;20010;51.488;7.232;2022-09-28T06:30:20;32.72;;;29.42;;
33491;SDS011;20010;51.488;7.232;2022-09-28T06:32:50;30.08;;;26.92;;
33491;SDS011;20010;51.488;7.232;2022-09-28T06:35:21;34.55;;;29.63;;
33491;SDS011;20010;51.488;7.232;2022-09-28T06:37:50;32.28;;;28.80;;
33491;SDS011;20010;51.488;7.232;2022-09-28T06:40:18;33.60;;;29.63;;
33491;SDS011;20010;51.488;7.232;2022-09-28T06:45:24;33.40;;;29.80;;
33491;SDS011;20010;51.488;7.232;2022-09-28T06:47:55;33.65;;;30.23;;
33491;SDS011;20010;51.488;7.232;2022-09-28T06:50:24;32.78;;;29.27;;
33491;SDS011;20010;51.488;7.232;2022-09-28T06:52:54;34.15;;;29.92;;
33491;SDS011;20010;51.488;7.232;2022-09-28T06:55:22;35.03;;;31.23;;
33491;SDS011;20010;51.488;7.232;2022-09-28T06:57:59;35.28;;;31.50;;
33491;SDS011;20010;51.488;7.232;2022-09-28T07:00:31;37.67;;;31.70;;
33491;SDS011;20010;51.488;7.232;2022-09-28T07:03:03;35.17;;;30.50;;
33491;SDS011;20010;51.488;7.232;2022-09-28T07:05:32;35.00;;;30.52;;
33491;SDS011;20010;51.488;7.232;2022-09-28T07:08:05;40.40;;;34.50;;
33491;SDS011;20010;51.488;7.232;2022-09-28T07:10:32;42.50;;;35.80;;
33491;SDS011;20010;51.488;7.232;2022-09-28T07:13:00;37.42;;;33.20;;
33491;SDS011;20010;51.488;7.232;2022-09-28T07:15:28;37.30;;;33.15;;
33491;SDS011;20010;51.488;7.232;2022-09-28T07:17:56;38.67;;;32.80;;
33491;SDS011;20010;51.488;7.232;2022-09-28T07:20:28;40.08;;;34.08;;
33491;SDS011;20010;51.488;7.232;2022-09-28T07:22:56;38.85;;;34.80;;
33491;SDS011;20010;51.488;7.232;2022-09-28T07:25:38;42.83;;;35.42;;
33491;SDS011;20010;51.488;7.232;2022-09-28T07:28:10;44.28;;;36.75;;
33491;SDS011;20010;51.488;7.232;2022-09-28T07:30:37;41.58;;;35.00;;
33491;SDS011;20010;51.488;7.232;2022-09-28T07:33:05;42.85;;;35.17;;
33491;SDS011;20010;51.488;7.232;2022-09-28T07:35:33;40.25;;;34.00;;
33491;SDS011;20010;51.488;7.232;2022-09-28T07:38:00;43.30;;;35.70;;
33491;SDS011;20010;51.488;7.232;2022-09-28T07:40:31;45.08;;;36.03;;
33491;SDS011;20010;51.488;7.232;2022-09-28T07:43:18;45.75;;;37.13;;
33491;SDS011;20010;51.488;7.232;2022-09-28T07:45:46;40.55;;;35.60;;
33491;SDS011;20010;51.488;7.232;2022-09-28T07:48:14;45.15;;;37.00;;
33491;SDS011;20010;51.488;7.232;2022-09-28T07:50:45;49.88;;;36.92;;
33491;SDS011;20010;51.488;7.232;2022-09-28T07:53:14;46.75;;;38.33;;
33491;SDS011;20010;51.488;7.232;2022-09-28T07:55:41;47.40;;;37.90;;
33491;SDS011;20010;51.488;7.232;2022-09-28T07:58:07;45.70;;;35.97;;
33491;SDS011;20010;51.488;7.232;2022-09-28T08:00:34;41.67;;;35.55;;
33491;SDS011;20010;51.488;7.232;2022-09-28T08:03:01;40.47;;;36.03;;
33491;SDS011;20010;51.488;7.232;2022-09-28T08:05:28;41.85;;;35.55;;
33491;SDS011;20010;51.488;7.232;2022-09-28T08:07:56;41.97;;;36.88;;
33491;SDS011;20010;51.488;7.232;2022-09-28T08:10:25;37.92;;;33.83;;
33491;SDS011;20010;51.488;7.232;2022-09-28T08:12:55;39.22;;;32.47;;
33491;SDS011;20010;51.488;7.232;2022-09-28T08:15:28;40.58;;;35.97;;
33491;SDS011;20010;51.488;7.232;2022-09-28T08:18:05;38.38;;;33.03;;
33491;SDS011;20010;51.488;7.232;2022-09-28T08:20:32;36.67;;;32.72;;
33491;SDS011;20010;51.488;7.232;2022-09-28T08:23:18;38.38;;;31.90;;
33491;SDS011;20010;51.488;7.232;2022-09-28T08:25:49;37.65;;;33.45;;
33491;SDS011;20010;51.488;7.232;2022-09-28T08:28:19;36.20;;;32.30;;
33491;SDS011;20010;51.488;7.232;2022-09-28T08:30:48;31.42;;;28.23;;
33491;SDS011;20010;51.488;7.232;2022-09-28T08:33:16;31.30;;;28.05;;
33491;SDS011;20010;51.488;7.232;2022-09-28T08:35:45;30.80;;;27.75;;
33491;SDS011;20010;51.488;7.232;2022-09-28T08:38:12;30.35;;;27.15;;
33491;SDS011;20010;51.488;7.232;2022-09-28T08:40:53;30.70;;;27.45;;
33491;SDS011;20010;51.488;7.232;2022-09-28T08:46:32;29.92;;;27.08;;
33491;SDS011;20010;51.488;7.232;2022-09-28T08:59:53;32.92;;;29.08;;
33491;SDS011;20010;51.488;7.232;2022-09-28T09:02:23;30.77;;;27.80;;
33491;SDS011;20010;51.488;7.232;2022-09-28T09:04:59;31.08;;;27.88;;
33491;SDS011;20010;51.488;7.232;2022-09-28T09:15:32;26.42;;;23.73;;
33491;SDS011;20010;51.488;7.232;2022-09-28T09:23:40;24.70;;;22.30;;
33491;SDS011;20010;51.488;7.232;2022-09-28T09:26:34;22.40;;;20.20;;
33491;SDS011;20010;51.488;7.232;2022-09-28T09:40:16;25.13;;;22.77;;
33491;SDS011;20010;51.488;7.232;2022-09-28T09:43:15;23.85;;;21.55;;
33491;SDS011;20010;51.488;7.232;2022-09-28T09:52:05;21.08;;;19.05;;
33491;SDS011;20010;51.488;7.232;2022-09-28T09:54:45;18.10;;;16.50;;
33491;SDS011;20010;51.488;7.232;2022-09-28T09:57:17;17.73;;;15.65;;
33491;SDS011;20010;51.488;7.232;2022-09-28T09:59:54;18.48;;;16.55;;
33491;SDS011;20010;51.488;7.232;2022-09-28T10:02:27;17.92;;;16.50;;
33491;SDS011;20010;51.488;7.232;2022-09-28T10:07:37;23.58;;;21.27;;
33491;SDS011;20010;51.488;7.232;2022-09-28T10:10:10;22.33;;;20.17;;
33491;SDS011;20010;51.488;7.232;2022-09-28T10:12:42;22.63;;;20.30;;
33491;SDS011;20010;51.488;7.232;2022-09-28T10:15:12;22.13;;;20.02;;
33491;SDS011;20010;51.488;7.232;2022-09-28T10:17:46;19.60;;;17.63;;
33491;SDS011;20010;51.488;7.232;2022-09-28T10:20:13;18.85;;;17.05;;
33491;SDS011;20010;51.488;7.232;2022-09-28T10:22:41;16.98;;;15.57;;
33491;SDS011;20010;51.488;7.232;2022-09-28T10:25:09;15.10;;;13.73;;
33491;SDS011;20010;51.488;7.232;2022-09-28T10:27:39;14.35;;;12.95;;
33491;SDS011;20010;51.488;7.232;2022-09-28T10:32:38;11.98;;;11.07;;
33491;SDS011;20010;51.488;7.232;2022-09-28T10:43:16;10.20;;;9.40;;
33491;SDS011;20010;51.488;7.232;2022-09-28T10:45:43;9.65;;;9.05;;
33491;SDS011;20010;51.488;7.232;2022-09-28T10:48:17;9.27;;;8.75;;
33491;SDS011;20010;51.488;7.232;2022-09-28T10:50:58;8.90;;;8.32;;
33491;SDS011;20010;51.488;7.232;2022-09-28T10:53:30;10.00;;;9.18;;
33491;SDS011;20010;51.488;7.232;2022-09-28T10:56:00;10.82;;;10.07;;
33491;SDS011;20010;51.488;7.232;2022-09-28T10:58:36;9.75;;;9.10;;
33491;SDS011;20010;51.488;7.232;2022-09-28T11:01:09;10.85;;;10.10;;
33491;SDS011;20010;51.488;7.232;2022-09-28T11:03:49;11.90;;;10.85;;
33491;SDS011;20010;51.488;7.232;2022-09-28T11:06:30;10.82;;;10.13;;
33491;SDS011;20010;51.488;7.232;2022-09-28T11:09:02;11.68;;;10.77;;
33491;SDS011;20010;51.488;7.232;2022-09-28T11:11:38;13.15;;;12.00;;
33491;SDS011;20010;51.488;7.232;2022-09-28T11:14:16;14.30;;;13.00;;
33491;SDS011;20010;51.488;7.232;2022-09-28T11:19:41;16.63;;;15.13;;
33491;SDS011;20010;51.488;7.232;2022-09-28T11:24:51;14.93;;;13.73;;
33491;SDS011;20010;51.488;7.232;2022-09-28T11:27:37;14.75;;;13.63;;
33491;SDS011;20010;51.488;7.232;2022-09-28T11:30:04;13.82;;;12.73;;
33491;SDS011;20010;51.488;7.232;2022-09-28T11:32:46;14.00;;;12.90;;
33491;SDS011;20010;51.488;7.232;2022-09-28T11:35:17;13.57;;;12.48;;
33491;SDS011;20010;51.488;7.232;2022-09-28T11:43:11;12.95;;;11.95;;
33491;SDS011;20010;51.488;7.232;2022-09-28T11:45:57;10.90;;;10.15;;
33491;SDS011;20010;51.488;7.232;2022-09-28T11:48:44;11.68;;;10.77;;
33491;SDS011;20010;51.488;7.232;2022-09-28T11:51:17;11.80;;;10.80;;
33491;SDS011;20010;51.488;7.232;2022-09-28T11:53:51;12.77;;;11.90;;
33491;SDS011;20010;51.488;7.232;2022-09-28T11:56:37;12.82;;;11.63;;
33491;SDS011;20010;51.488;7.232;2022-09-28T11:59:10;12.70;;;11.52;;
33491;SDS011;20010;51.488;7.232;2022-09-28T12:02:08;10.27;;;9.48;;
33491;SDS011;20010;51.488;7.232;2022-09-28T12:04:51;10.18;;;9.48;;
33491;SDS011;20010;51.488;7.232;2022-09-28T12:07:36;10.70;;;9.85;;
33491;SDS011;20010;51.488;7.232;2022-09-28T12:10:25;10.07;;;9.27;;
33491;SDS011;20010;51.488;7.232;2022-09-28T12:13:32;10.30;;;9.60;;
33491;SDS011;20010;51.488;7.232;2022-09-28T12:16:03;9.95;;;9.25;;
33491;SDS011;20010;51.488;7.232;2022-09-28T12:19:03;9.88;;;9.10;;
33491;SDS011;20010;51.488;7.232;2022-09-28T12:24:22;10.27;;;9.32;;
33491;SDS011;20010;51.488;7.232;2022-09-28T12:26:59;10.70;;;9.90;;
33491;SDS011;20010;51.488;7.232;2022-09-28T12:29:36;11.52;;;10.80;;
33491;SDS011;20010;51.488;7.232;2022-09-28T12:35:13;11.02;;;10.32;;
33491;SDS011;20010;51.488;7.232;2022-09-28T12:51:53;10.52;;;9.73;;
33491;SDS011;20010;51.488;7.232;2022-09-28T12:59:34;10.98;;;10.13;;
33491;SDS011;20010;51.488;7.232;2022-09-28T13:10:40;13.45;;;12.18;;
33491;SDS011;20010;51.488;7.232;2022-09-28T13:18:33;9.88;;;9.30;;
33491;SDS011;20010;51.488;7.232;2022-09-28T13:21:21;12.13;;;11.20;;
33491;SDS011;20010;51.488;7.232;2022-09-28T13:24:06;9.43;;;8.77;;
33491;SDS011;20010;51.488;7.232;2022-09-28T13:29:29;9.90;;;9.18;;
33491;SDS011;20010;51.488;7.232;2022-09-28T13:31:57;9.82;;;9.23;;
33491;SDS011;20010;51.488;7.232;2022-09-28T13:34:28;10.82;;;10.05;;
33491;SDS011;20010;51.488;7.232;2022-09-28T13:39:52;9.93;;;9.18;;
33491;SDS011;20010;51.488;7.232;2022-09-28T13:50:26;8.18;;;7.50;;
33491;SDS011;20010;51.488;7.232;2022-09-28T13:56:21;7.05;;;6.60;;
33491;SDS011;20010;51.488;7.232;2022-09-28T13:58:52;6.80;;;6.20;;
33491;SDS011;20010;51.488;7.232;2022-09-28T14:01:29;7.70;;;7.20;;
33491;SDS011;20010;51.488;7.232;2022-09-28T14:06:54;8.30;;;7.70;;
33491;SDS011;20010;51.488;7.232;2022-09-28T14:09:40;7.82;;;7.38;;
33491;SDS011;20010;51.488;7.232;2022-09-28T14:12:27;8.18;;;7.68;;
33491;SDS011;20010;51.488;7.232;2022-09-28T14:17:59;8.50;;;8.00;;
33491;SDS011;20010;51.488;7.232;2022-09-28T14:23:48;8.55;;;7.93;;
33491;SDS011;20010;51.488;7.232;2022-09-28T14:26:46;8.27;;;7.72;;
33491;SDS011;20010;51.488;7.232;2022-09-28T14:29:22;8.15;;;7.70;;
33491;SDS011;20010;51.488;7.232;2022-09-28T14:32:03;8.45;;;7.95;;
33491;SDS011;20010;51.488;7.232;2022-09-28T14:34:32;7.75;;;7.22;;
33491;SDS011;20010;51.488;7.232;2022-09-28T14:37:02;7.13;;;6.72;;
33491;SDS011;20010;51.488;7.232;2022-09-28T14:40:07;7.85;;;7.35;;
33491;SDS011;20010;51.488;7.232;2022-09-28T14:43:23;8.57;;;7.88;;
33491;SDS011;20010;51.488;7.232;2022-09-28T14:48:43;8.05;;;7.55;;
33491;SDS011;20010;51.488;7.232;2022-09-28T14:56:21;9.00;;;8.25;;
33491;SDS011;20010;51.488;7.232;2022-09-28T14:58:51;8.57;;;8.07;;
33491;SDS011;20010;51.488;7.232;2022-09-28T15:01:21;8.10;;;7.50;;
33491;SDS011;20010;51.488;7.232;2022-09-28T15:03:50;8.70;;;8.10;;
33491;SDS011;20010;51.488;7.232;2022-09-28T15:06:24;8.75;;;8.07;;
33491;SDS011;20010;51.488;7.232;2022-09-28T15:08:52;8.90;;;8.38;;
33491;SDS011;20010;51.488;7.232;2022-09-28T15:11:23;8.20;;;7.80;;
33491;SDS011;20010;51.488;7.232;2022-09-28T15:14:03;8.40;;;7.90;;
33491;SDS011;20010;51.488;7.232;2022-09-28T15:16:31;8.90;;;8.10;;
33491;SDS011;20010;51.488;7.232;2022-09-28T15:21:44;8.10;;;7.70;;
33491;SDS011;20010;51.488;7.232;2022-09-28T15:24:23;8.20;;;7.65;;
33491;SDS011;20010;51.488;7.232;2022-09-28T15:26:52;8.93;;;8.23;;
33491;SDS011;20010;51.488;7.232;2022-09-28T15:29:20;8.90;;;8.30;;
33491;SDS011;20010;51.488;7.232;2022-09-28T15:31:48;7.72;;;7.22;;
33491;SDS011;20010;51.488;7.232;2022-09-28T15:34:26;7.97;;;7.30;;
33491;SDS011;20010;51.488;7.232;2022-09-28T15:37:23;8.37;;;7.63;;
33491;SDS011;20010;51.488;7.232;2022-09-28T15:39:52;7.80;;;7.30;;
33491;SDS011;20010;51.488;7.232;2022-09-28T15:42:21;8.13;;;7.63;;
33491;SDS011;20010;51.488;7.232;2022-09-28T15:45:22;8.30;;;7.72;;
33491;SDS011;20010;51.488;7.232;2022-09-28T15:47:55;8.20;;;7.80;;
33491;SDS011;20010;51.488;7.232;2022-09-28T15:50:55;7.85;;;7.38;;
33491;SDS011;20010;51.488;7.232;2022-09-28T15:53:37;7.90;;;7.50;;
33491;SDS011;20010;51.488;7.232;2022-09-28T15:56:08;8.32;;;7.82;;
33491;SDS011;20010;51.488;7.232;2022-09-28T15:58:37;7.82;;;7.32;;
33491;SDS011;20010;51.488;7.232;2022-09-28T16:04:37;7.32;;;6.82;;
33491;SDS011;20010;51.488;7.232;2022-09-28T16:07:17;7.18;;;6.78;;
33491;SDS011;20010;51.488;7.232;2022-09-28T16:12:47;7.05;;;6.65;;
33491;SDS011;20010;51.488;7.232;2022-09-28T16:15:51;6.53;;;6.10;;
33491;SDS011;20010;51.488;7.232;2022-09-28T16:20:45;6.70;;;6.30;;
33491;SDS011;20010;51.488;7.232;2022-09-28T16:23:17;6.90;;;6.50;;
33491;SDS011;20010;51.488;7.232;2022-09-28T16:31:01;7.30;;;6.53;;
33491;SDS011;20010;51.488;7.232;2022-09-28T16:33:43;6.78;;;6.38;;
33491;SDS011;20010;51.488;7.232;2022-09-28T16:36:14;7.60;;;7.20;;
33491;SDS011;20010;51.488;7.232;2022-09-28T16:38:43;7.13;;;6.70;;
33491;SDS011;20010;51.488;7.232;2022-09-28T16:41:10;6.90;;;6.60;;
33491;SDS011;20010;51.488;7.232;2022-09-28T16:43:38;6.90;;;6.43;;
33491;SDS011;20010;51.488;7.232;2022-09-28T16:46:09;6.80;;;6.32;;
33491;SDS011;20010;51.488;7.232;2022-09-28T16:48:42;6.95;;;6.45;;
33491;SDS011;20010;51.488;7.232;2022-09-28T16:51:14;6.60;;;6.20;;
33491;SDS011;20010;51.488;7.232;2022-09-28T16:53:41;6.28;;;5.90;;
33491;SDS011;20010;51.488;7.232;2022-09-28T16:56:27;6.97;;;6.57;;
33491;SDS011;20010;51.488;7.232;2022-09-28T16:58:54;6.75;;;6.45;;
33491;SDS011;20010;51.488;7.232;2022-09-28T17:01:22;7.32;;;6.80;;
33491;SDS011;20010;51.488;7.232;2022-09-28T17:03:49;6.43;;;6.00;;
33491;SDS011;20010;51.488;7.232;2022-09-28T17:06:16;6.28;;;5.97;;
33491;SDS011;20010;51.488;7.232;2022-09-28T17:08:45;6.30;;;5.90;;
33491;SDS011;20010;51.488;7.232;2022-09-28T17:11:13;5.55;;;5.20;;
33491;SDS011;20010;51.488;7.232;2022-09-28T17:13:48;6.65;;;6.35;;
33491;SDS011;20010;51.488;7.232;2022-09-28T17:16:16;5.80;;;5.45;;
33491;SDS011;20010;51.488;7.232;2022-09-28T17:19:02;6.57;;;6.07;;
33491;SDS011;20010;51.488;7.232;2022-09-28T17:21:30;6.38;;;6.07;;
33491;SDS011;20010;51.488;7.232;2022-09-28T17:23:57;7.00;;;6.60;;
33491;SDS011;20010;51.488;7.232;2022-09-28T17:26:25;6.40;;;6.00;;
33491;SDS011;20010;51.488;7.232;2022-09-28T17:28:59;7.38;;;6.90;;
33491;SDS011;20010;51.488;7.232;2022-09-28T17:31:27;7.75;;;6.97;;
33491;SDS011;20010;51.488;7.232;2022-09-28T17:33:55;7.68;;;7.20;;
33491;SDS011;20010;51.488;7.232;2022-09-28T17:36:22;8.48;;;7.88;;
33491;SDS011;20010;51.488;7.232;2022-09-28T17:38:49;7.95;;;7.45;;
33491;SDS011;20010;51.488;7.232;2022-09-28T17:41:18;7.20;;;6.75;;
33491;SDS011;20010;51.488;7.232;2022-09-28T17:43:46;8.20;;;7.50;;
33491;SDS011;20010;51.488;7.232;2022-09-28T17:46:20;7.05;;;6.72;;
33491;SDS011;20010;51.488;7.232;2022-09-28T17:48:51;8.02;;;7.35;;
33491;SDS011;20010;51.488;7.232;2022-09-28T17:51:18;7.60;;;7.10;;
33491;SDS011;20010;51.488;7.232;2022-09-28T17:53:45;7.38;;;6.68;;
33491;SDS011;20010;51.488;7.232;2022-09-28T17:56:12;8.00;;;7.40;;
33491;SDS011;20010;51.488;7.232;2022-09-28T17:58:38;7.95;;;7.25;;
33491;SDS011;20010;51.488;7.232;2022-09-28T18:01:05;7.38;;;6.78;;
33491;SDS011;20010;51.488;7.232;2022-09-28T18:03:32;10.27;;;8.55;;
33491;SDS011;20010;51.488;7.232;2022-09-28T18:08:33;7.38;;;6.88;;
33491;SDS011;20010;51.488;7.232;2022-09-28T18:11:01;7.90;;;7.25;;
33491;SDS011;20010;51.488;7.232;2022-09-28T18:13:28;8.05;;;7.32;;
33491;SDS011;20010;51.488;7.232;2022-09-28T18:15:55;7.45;;;6.85;;
33491;SDS011;20010;51.488;7.232;2022-09-28T18:18:22;7.32;;;6.72;;
33491;SDS011;20010;51.488;7.232;2022-09-28T18:20:49;7.75;;;7.07;;
33491;SDS011;20010;51.488;7.232;2022-09-28T18:23:17;7.45;;;6.95;;
33491;SDS011;20010;51.488;7.232;2022-09-28T18:25:44;7.68;;;6.97;;
33491;SDS011;20010;51.488;7.232;2022-09-28T18:28:11;10.00;;;9.02;;